Time;durP1;ratioP1;P1;durP2;ratioP2;P2;SDS_P1;SDS_P2;PMS_P1;PMS_P2;Temp;Humidity;BMP_temperature;BMP_pressure;BME280_temperature;BME280_humidity;BME280_pressure;Samples;Min_cycle;Max_cycle;Signal;HPM_P1;HPM_P2
2021/10/24 00:01:02;;;;;;;13.68;8.85;;;256.80;2252.80;;;;;;5098665;28;20031;-78
2021/10/24 00:03:29;;;;;;;14.00;9.00;;;256.80;2252.80;;;;;;5094898;28;20116;-77
2021/10/24 00:05:55;;;;;;;14.82;9.63;;;256.80;2252.80;;;;;;5094881;28;20024;-77
2021/10/24 00:08:21;;;;;;;16.70;9.93;;;256.90;2252.80;;;;;;5096554;28;20074;-78
2021/10/24 00:10:47;;;;;;;15.15;10.20;;;256.80;2252.80;;;;;;5094882;28;20076;-79
2021/10/24 00:13:13;;;;;;;20.85;10.30;;;256.90;2252.80;;;;;;5096370;28;20024;-78
2021/10/24 00:15:39;;;;;;;22.08;11.50;;;256.90;2252.80;;;;;;5095152;28;20034;-77
2021/10/24 00:18:05;;;;;;;21.27;11.13;;;256.90;2252.80;;;;;;5096037;28;20031;-77
2021/10/24 00:20:32;;;;;;;17.25;10.93;;;256.80;2252.80;;;;;;5094717;28;20068;-76
2021/10/24 00:22:59;;;;;;;18.20;11.75;;;256.90;2252.80;;;;;;5096281;28;20032;-78
2021/10/24 00:25:25;;;;;;;17.73;10.85;;;256.90;2252.80;;;;;;5094874;28;20024;-77
2021/10/24 00:27:51;;;;;;;20.23;11.30;;;281.60;2278.40;;;;;;5094608;28;20082;-77
2021/10/24 00:30:17;;;;;;;19.27;12.75;;;256.90;2252.80;;;;;;5094956;28;20020;-75
2021/10/24 00:32:43;;;;;;;25.48;17.70;;;256.80;2252.80;;;;;;5095820;28;20063;-77
2021/10/24 00:35:09;;;;;;;23.55;15.07;;;256.80;2252.80;;;;;;5094269;28;20467;-76
2021/10/24 00:37:35;;;;;;;22.08;13.50;;;256.90;2252.80;;;;;;5096032;28;20495;-76
2021/10/24 00:40:01;;;;;;;21.58;13.73;;;256.90;2252.80;;;;;;5094715;28;20116;-77
2021/10/24 00:42:27;;;;;;;30.40;18.20;;;281.60;2278.40;;;;;;5094363;28;20021;-78
2021/10/24 00:44:53;;;;;;;23.10;14.77;;;281.60;2278.40;;;;;;5095695;28;20031;-78
2021/10/24 00:47:19;;;;;;;22.92;14.05;;;281.60;2278.40;;;;;;5095782;28;20027;-79
2021/10/24 00:49:44;;;;;;;50.97;33.58;;;281.60;2278.40;;;;;;5094275;28;20024;-77
2021/10/24 00:52:10;;;;;;;42.25;26.00;;;256.80;2252.80;;;;;;5094603;28;20077;-78
2021/10/24 00:54:39;;;;;;;33.50;22.52;;;256.90;2252.80;;;;;;5100456;28;20028;-76
2021/10/24 00:57:05;;;;;;;32.90;20.38;;;256.90;2252.80;;;;;;5100335;28;20028;-76
2021/10/24 00:59:31;;;;;;;25.50;17.05;;;281.60;2278.40;;;;;;5098513;28;20039;-78
2021/10/24 01:01:57;;;;;;;35.33;20.95;;;281.70;2278.40;;;;;;5094128;28;20024;-78
2021/10/24 01:04:23;;;;;;;32.67;20.58;;;281.70;2278.40;;;;;;5094166;28;20024;-76
2021/10/24 01:06:51;;;;;;;25.15;17.17;;;256.80;2252.80;;;;;;5094273;28;20089;-77
2021/10/24 01:09:21;;;;;;;24.30;16.15;;;281.60;2278.40;;;;;;5093854;28;20352;-78
2021/10/24 01:11:49;;;;;;;24.08;13.95;;;281.60;2278.40;;;;;;5094009;28;20024;-78
2021/10/24 01:14:15;;;;;;;19.70;12.18;;;281.60;2278.40;;;;;;5095439;28;20035;-77
2021/10/24 01:16:42;;;;;;;20.02;12.25;;;256.90;2252.80;;;;;;5094682;28;20375;-76
2021/10/24 01:19:10;;;;;;;17.25;11.60;;;281.60;2278.40;;;;;;5093896;28;20123;-77
2021/10/24 01:21:36;;;;;;;16.60;11.65;;;281.60;2278.40;;;;;;5093987;28;20020;-76
2021/10/24 01:24:03;;;;;;;22.05;14.57;;;281.60;2278.40;;;;;;5093569;28;20024;-78
2021/10/24 01:26:29;;;;;;;25.98;17.33;;;281.60;2278.40;;;;;;5093587;28;20024;-78
2021/10/24 01:28:56;;;;;;;23.95;17.33;;;281.60;2278.40;;;;;;5093706;28;20029;-77
2021/10/24 01:31:23;;;;;;;28.63;19.25;;;256.80;2252.80;;;;;;5093411;28;20032;-77
2021/10/24 01:33:49;;;;;;;23.63;17.02;;;256.90;2252.80;;;;;;5093637;28;20471;-77
2021/10/24 01:36:15;;;;;;;25.10;18.40;;;256.90;2252.80;;;;;;5093447;28;20096;-77
2021/10/24 01:38:51;;;;;;;23.05;15.70;;;256.90;2252.80;;;;;;5093271;28;20122;-77
2021/10/24 01:41:19;;;;;;;22.60;13.75;;;281.60;2278.40;;;;;;5093291;28;20050;-77
2021/10/24 01:43:46;;;;;;;18.70;14.25;;;256.80;2252.80;;;;;;5094322;28;20027;-77
2021/10/24 01:46:13;;;;;;;21.58;14.20;;;256.80;2252.80;;;;;;5093617;28;20036;-76
2021/10/24 01:48:40;;;;;;;26.23;16.67;;;256.80;2252.80;;;;;;5093302;28;20474;-76
2021/10/24 01:51:06;;;;;;;26.60;16.67;;;256.70;2252.80;;;;;;5093092;28;20016;-79
2021/10/24 01:53:37;;;;;;;26.20;18.30;;;256.70;2252.80;;;;;;5093131;28;20028;-77
2021/10/24 01:56:03;;;;;;;26.40;17.48;;;256.60;2252.80;;;;;;5093290;28;20028;-77
2021/10/24 01:58:29;;;;;;;22.70;15.80;;;256.50;2252.80;;;;;;5092993;28;20107;-76
2021/10/24 02:00:55;;;;;;;30.02;19.25;;;256.70;2252.80;;;;;;5093047;28;20055;-76
2021/10/24 02:03:21;;;;;;;29.13;20.27;;;256.70;2252.80;;;;;;5094336;28;20169;-76
2021/10/24 02:05:47;;;;;;;32.35;20.55;;;256.70;2252.80;;;;;;5092649;28;20542;-77
2021/10/24 02:08:14;;;;;;;33.22;19.77;;;256.70;2252.80;;;;;;5094270;28;20103;-77
2021/10/24 02:10:40;;;;;;;32.58;21.98;;;256.70;2252.80;;;;;;5092734;28;20060;-77
2021/10/24 02:13:07;;;;;;;29.67;21.40;;;256.70;2252.80;;;;;;5093835;28;20028;-77
2021/10/24 02:15:35;;;;;;;29.92;22.80;;;256.80;2252.80;;;;;;5092924;28;20032;-77
2021/10/24 02:18:01;;;;;;;31.08;21.08;;;256.80;2252.80;;;;;;5092848;28;20026;-76
2021/10/24 02:20:29;;;;;;;28.25;19.58;;;256.70;2252.80;;;;;;5093836;28;20026;-76
2021/10/24 02:22:55;;;;;;;26.35;16.63;;;256.90;2252.80;;;;;;5094091;28;20077;-77
2021/10/24 02:25:21;;;;;;;23.30;15.98;;;256.90;2252.80;;;;;;5093722;28;20035;-77
2021/10/24 02:27:48;;;;;;;18.60;13.88;;;256.30;2252.80;;;;;;5092420;28;20031;-77
2021/10/24 02:30:14;;;;;;;19.52;13.63;;;256.50;2252.80;;;;;;5092660;28;20024;-77
2021/10/24 02:32:42;;;;;;;18.73;13.43;;;256.50;2252.80;;;;;;5092680;28;20025;-75
2021/10/24 02:35:12;;;;;;;18.38;12.35;;;256.50;2252.80;;;;;;5093306;28;20055;-76
2021/10/24 02:37:39;;;;;;;17.55;12.00;;;256.50;2252.80;;;;;;5094204;28;20384;-76
2021/10/24 02:40:07;;;;;;;18.63;10.98;;;256.50;2252.80;;;;;;5093315;28;20538;-77
2021/10/24 02:42:33;;;;;;;17.63;11.20;;;256.50;2252.80;;;;;;5092503;28;20024;-76
2021/10/24 02:44:59;;;;;;;18.13;11.38;;;256.30;2252.80;;;;;;5092553;28;20540;-77
2021/10/24 02:47:25;;;;;;;17.80;10.63;;;256.50;2252.80;;;;;;5092113;28;20464;-76
2021/10/24 02:49:51;;;;;;;16.40;12.35;;;256.20;2252.80;;;;;;5092413;28;20028;-77
2021/10/24 02:52:17;;;;;;;19.65;14.20;;;256.00;2252.80;;;;;;5092459;28;20028;-76
2021/10/24 02:54:42;;;;;;;19.67;15.13;;;256.10;2252.80;;;;;;5093748;28;20081;-77
2021/10/24 02:57:08;;;;;;;19.45;14.13;;;256.00;2252.80;;;;;;5092446;28;20028;-76
2021/10/24 02:59:34;;;;;;;28.45;20.80;;;256.10;2252.80;;;;;;5092382;28;20509;-76
2021/10/24 03:02:00;;;;;;;27.17;19.95;;;256.10;2252.80;;;;;;5093117;28;20035;-76
2021/10/24 03:04:27;;;;;;;25.55;17.98;;;231.10;2252.80;;;;;;5092304;28;20028;-76
2021/10/24 03:06:53;;;;;;;28.55;19.40;;;231.30;2252.80;;;;;;5092293;28;20038;-77
2021/10/24 03:09:20;;;;;;;93.70;35.60;;;231.20;2252.80;;;;;;5092183;28;20032;-77
2021/10/24 03:11:46;;;;;;;68.22;30.48;;;231.10;2252.80;;;;;;5092440;28;20114;-76
2021/10/24 03:14:13;;;;;;;47.10;23.73;;;231.20;2252.80;;;;;;5092733;28;20058;-78
2021/10/24 03:16:39;;;;;;;44.42;23.52;;;231.20;2252.80;;;;;;5093514;28;20031;-76
2021/10/24 03:19:05;;;;;;;46.35;23.10;;;231.00;2252.80;;;;;;5092496;28;20024;-77
2021/10/24 03:21:31;;;;;;;35.72;18.45;;;231.20;2252.80;;;;;;5092495;28;20111;-76
2021/10/24 03:24:01;;;;;;;110.63;44.28;;;231.10;2252.80;;;;;;5092029;28;20058;-76
2021/10/24 03:26:28;;;;;;;87.35;35.65;;;231.20;2252.80;;;;;;5092332;28;20536;-76
2021/10/24 03:28:54;;;;;;;59.63;29.67;;;231.20;2252.80;;;;;;5091906;28;20024;-76
2021/10/24 03:31:20;;;;;;;39.40;22.08;;;231.10;2252.80;;;;;;5093869;28;20028;-77
2021/10/24 03:33:46;;;;;;;44.42;26.02;;;231.20;2252.80;;;;;;5093921;28;20028;-76
2021/10/24 03:36:13;;;;;;;40.60;25.50;;;231.30;2252.80;;;;;;5091710;28;20052;-77
2021/10/24 03:38:39;;;;;;;37.42;23.83;;;230.70;2252.80;;;;;;5097537;28;20024;-76
2021/10/24 03:41:05;;;;;;;120.07;53.92;;;230.80;2252.80;;;;;;5097085;28;20024;-76
2021/10/24 03:43:31;;;;;;;98.15;42.05;;;230.70;2252.80;;;;;;5097017;28;20046;-76
2021/10/24 03:45:58;;;;;;;59.42;33.92;;;230.80;2252.80;;;;;;5095884;28;20468;-76
2021/10/24 03:48:24;;;;;;;46.47;29.52;;;230.80;2252.80;;;;;;5095889;28;20120;-76
2021/10/24 03:50:50;;;;;;;37.67;24.77;;;230.60;2252.80;;;;;;5096884;28;20020;-77
2021/10/24 03:53:17;;;;;;;39.13;24.70;;;230.50;2252.80;;;;;;5095990;28;20035;-76
2021/10/24 03:55:43;;;;;;;44.63;27.20;;;230.50;2252.80;;;;;;5095775;28;20024;-76
2021/10/24 03:58:09;;;;;;;40.72;24.67;;;230.40;2252.80;;;;;;5095428;28;20021;-76
2021/10/24 04:00:35;;;;;;;41.10;27.15;;;230.40;2252.80;;;;;;5095713;28;20429;-77
2021/10/24 04:03:05;;;;;;;43.83;26.85;;;230.50;2252.80;;;;;;5096819;28;20154;-77
2021/10/24 04:05:33;;;;;;;64.72;38.35;;;230.60;2252.80;;;;;;5095083;28;20039;-75
2021/10/24 04:08:00;;;;;;;63.78;34.90;;;230.40;2252.80;;;;;;5095323;28;20051;-77
2021/10/24 04:10:27;;;;;;;50.97;30.52;;;230.50;2252.80;;;;;;5095385;28;20024;-77
2021/10/24 04:12:55;;;;;;;74.93;40.40;;;230.40;2252.80;;;;;;5095304;28;20517;-76
2021/10/24 04:15:22;;;;;;;78.15;51.03;;;205.70;2252.80;;;;;;5095715;28;20154;-76
2021/10/24 04:17:48;;;;;;;61.17;42.88;;;230.60;2252.80;;;;;;5095479;28;20475;-76
2021/10/24 04:20:17;;;;;;;61.10;37.58;;;230.50;2252.80;;;;;;5096134;28;20031;-76
2021/10/24 04:22:43;;;;;;;56.08;34.72;;;230.50;2252.80;;;;;;5095937;28;20108;-75
2021/10/24 04:25:10;;;;;;;57.42;38.28;;;230.50;2252.80;;;;;;5097251;28;20032;-76
2021/10/24 04:27:37;;;;;;;49.83;31.55;;;230.40;2252.80;;;;;;5095704;28;20521;-77
2021/10/24 04:30:06;;;;;;;36.30;22.90;;;230.50;2252.80;;;;;;5097657;28;20028;-75
2021/10/24 04:32:32;;;;;;;39.80;28.58;;;230.50;2252.80;;;;;;5097488;28;20085;-76
2021/10/24 04:34:58;;;;;;;65.65;47.30;;;230.50;2252.80;;;;;;5096376;28;20138;-76
2021/10/24 04:37:23;;;;;;;56.25;38.65;;;230.50;2252.80;;;;;;5096597;28;20032;-76
2021/10/24 04:39:49;;;;;;;69.82;43.70;;;230.50;2252.80;;;;;;5097864;28;20027;-76
2021/10/24 04:42:15;;;;;;;59.92;34.28;;;230.60;2252.80;;;;;;5097514;28;20028;-76
2021/10/24 04:44:41;;;;;;;42.45;27.13;;;230.50;2252.80;;;;;;5097135;28;20081;-77
2021/10/24 04:47:07;;;;;;;41.80;25.98;;;205.60;2252.80;;;;;;5096151;28;20118;-76
2021/10/24 04:49:33;;;;;;;48.92;29.50;;;205.60;2252.80;;;;;;5096689;28;20413;-77
2021/10/24 04:51:59;;;;;;;48.65;31.02;;;205.60;2252.80;;;;;;5096500;28;20028;-75
2021/10/24 04:54:25;;;;;;;49.42;30.77;;;205.50;2252.80;;;;;;5097668;28;20020;-76
2021/10/24 04:56:51;;;;;;;48.17;31.92;;;205.60;2252.80;;;;;;5096741;28;20050;-76
2021/10/24 04:59:19;;;;;;;71.47;38.85;;;205.60;2252.80;;;;;;5096429;28;20394;-75
2021/10/24 05:01:45;;;;;;;70.88;40.55;;;205.30;2252.80;;;;;;5095258;28;20030;-76
2021/10/24 05:04:11;;;;;;;56.97;37.38;;;205.30;2252.80;;;;;;5096246;28;20472;-75
2021/10/24 05:06:38;;;;;;;49.03;34.78;;;205.30;2252.80;;;;;;5097936;28;20066;-75
2021/10/24 05:09:05;;;;;;;49.13;32.35;;;205.40;2252.80;;;;;;5095877;28;20409;-76
2021/10/24 05:11:31;;;;;;;47.40;32.17;;;205.40;2252.80;;;;;;5095807;28;20483;-75
2021/10/24 05:13:57;;;;;;;42.13;30.20;;;205.30;2252.80;;;;;;5093711;28;20020;-77
2021/10/24 05:16:23;;;;;;;40.33;28.77;;;205.40;2252.80;;;;;;5094619;28;20464;-77
2021/10/24 05:18:48;;;;;;;39.05;27.83;;;205.40;2252.80;;;;;;5094597;28;20077;-75
2021/10/24 05:21:14;;;;;;;55.22;40.40;;;205.60;2252.80;;;;;;5094196;28;20024;-77
2021/10/24 05:23:40;;;;;;;67.90;47.63;;;205.20;2252.80;;;;;;5094155;28;20036;-75
2021/10/24 05:26:06;;;;;;;60.47;41.65;;;205.20;2252.80;;;;;;5095239;28;20451;-78
2021/10/24 05:28:32;;;;;;;58.17;40.10;;;205.30;2252.80;;;;;;5094165;28;20032;-76
2021/10/24 05:30:58;;;;;;;62.95;43.53;;;205.30;2252.80;;;;;;5095179;28;20032;-75
2021/10/24 05:33:24;;;;;;;50.42;37.22;;;205.30;2252.80;;;;;;5094452;28;20028;-77
2021/10/24 05:35:52;;;;;;;52.55;36.90;;;205.40;2252.80;;;;;;5095239;28;20075;-75
2021/10/24 05:38:18;;;;;;;56.55;39.92;;;205.50;2252.80;;;;;;5094459;28;20028;-75
2021/10/24 05:40:45;;;;;;;85.43;59.65;;;205.60;2252.80;;;;;;5094502;28;20073;-77
2021/10/24 05:43:11;;;;;;;93.15;63.45;;;205.50;2252.80;;;;;;5093667;28;20024;-76
2021/10/24 05:45:37;;;;;;;130.13;86.13;;;205.60;2252.80;;;;;;5094777;28;20641;-76
2021/10/24 05:48:03;;;;;;;341.95;225.60;;;205.40;2252.80;;;;;;5094151;28;20063;-75
2021/10/24 05:50:29;;;;;;;200.30;134.23;;;205.40;2252.80;;;;;;5094803;28;20107;-77
2021/10/24 05:52:55;;;;;;;189.20;137.95;;;205.50;2252.80;;;;;;5093878;28;20074;-76
2021/10/24 05:55:22;;;;;;;123.82;90.20;;;205.30;2252.80;;;;;;5093578;28;20028;-76
2021/10/24 05:57:48;;;;;;;96.40;65.95;;;205.10;2252.80;;;;;;5094258;28;20035;-76
2021/10/24 06:00:14;;;;;;;85.10;61.22;;;205.10;2252.80;;;;;;5094040;28;20028;-76
2021/10/24 06:02:40;;;;;;;110.40;79.53;;;205.20;2252.80;;;;;;5094597;28;20039;-76
2021/10/24 06:05:06;;;;;;;87.97;62.00;;;205.10;2252.80;;;;;;5094196;28;20024;-77
2021/10/24 06:07:33;;;;;;;185.77;131.88;;;205.00;2252.80;;;;;;5094325;28;20032;-77
2021/10/24 06:10:12;;;;;;;118.97;89.15;;;204.90;2252.80;;;;;;5092865;28;20032;-76
2021/10/24 06:15:06;;;;;;;81.75;64.45;;;205.00;2252.80;;;;;;5094288;28;20452;-80
2021/10/24 06:17:32;;;;;;;75.25;55.05;;;205.10;2252.80;;;;;;5092622;28;20077;-77
2021/10/24 06:19:58;;;;;;;76.13;57.15;;;205.10;2252.80;;;;;;5092986;28;20028;-77
2021/10/24 06:22:26;;;;;;;87.88;60.03;;;205.10;2252.80;;;;;;5092849;28;20030;-76
2021/10/24 06:24:52;;;;;;;74.57;52.75;;;205.10;2252.80;;;;;;5092665;28;20360;-76
2021/10/24 06:27:18;;;;;;;71.47;53.97;;;205.30;2252.80;;;;;;5092918;28;20145;-75
2021/10/24 06:29:43;;;;;;;95.20;70.50;;;205.40;2252.80;;;;;;5093823;28;20052;-76
2021/10/24 06:32:09;;;;;;;122.72;98.25;;;205.60;2252.80;;;;;;5092745;28;20384;-77
2021/10/24 06:34:35;;;;;;;109.68;82.07;;;205.70;2252.80;;;;;;5092584;28;20040;-78
2021/10/24 06:37:01;;;;;;;101.85;73.82;;;230.40;2252.80;;;;;;5092749;28;20036;-78
2021/10/24 06:39:27;;;;;;;102.32;76.18;;;230.50;2252.80;;;;;;5092469;28;20123;-78
2021/10/24 06:41:53;;;;;;;92.53;68.15;;;230.50;2252.80;;;;;;5093700;28;20055;-76
2021/10/24 06:44:19;;;;;;;101.45;69.03;;;230.60;2252.80;;;;;;5094033;28;20020;-76
2021/10/24 06:46:45;;;;;;;86.55;62.70;;;230.60;2252.80;;;;;;5093190;28;20028;-76
2021/10/24 06:49:11;;;;;;;96.20;67.25;;;230.70;2252.80;;;;;;5092752;28;20028;-76
2021/10/24 06:51:37;;;;;;;101.30;68.30;;;230.90;2252.80;;;;;;5092598;28;20111;-75
2021/10/24 06:54:03;;;;;;;94.25;61.38;;;230.80;2252.80;;;;;;5092225;28;20020;-77
2021/10/24 06:56:29;;;;;;;67.68;51.78;;;230.80;2252.80;;;;;;5093726;28;20440;-76
2021/10/24 06:58:54;;;;;;;75.53;61.45;;;230.90;2252.80;;;;;;5092058;28;20028;-79
2021/10/24 07:01:20;;;;;;;47.08;38.65;;;230.70;2252.80;;;;;;5092364;28;20024;-75
2021/10/24 07:03:46;;;;;;;45.22;31.70;;;230.80;2252.80;;;;;;5093643;28;20020;-76
2021/10/24 07:06:12;;;;;;;39.17;28.60;;;230.70;2252.80;;;;;;5091984;28;20028;-76
2021/10/24 07:08:38;;;;;;;34.30;26.75;;;230.90;2252.80;;;;;;5093961;28;20032;-76
2021/10/24 07:11:04;;;;;;;42.72;33.08;;;231.10;2252.80;;;;;;5095007;28;20024;-76
2021/10/24 07:13:30;;;;;;;37.70;30.00;;;231.10;2252.80;;;;;;5096267;28;20028;-77
2021/10/24 07:15:56;;;;;;;44.03;31.55;;;231.10;2252.80;;;;;;5096529;28;20032;-76
2021/10/24 07:18:22;;;;;;;58.55;42.75;;;231.20;2252.80;;;;;;5096424;28;20028;-76
2021/10/24 07:20:48;;;;;;;45.17;32.85;;;231.20;2252.80;;;;;;5096931;28;20472;-75
2021/10/24 07:23:13;;;;;;;25.25;19.13;;;231.20;2252.80;;;;;;5096241;28;20024;-76
2021/10/24 07:25:39;;;;;;;29.00;17.50;;;231.30;2252.80;;;;;;5096130;28;20046;-77
2021/10/24 07:28:05;;;;;;;37.97;24.42;;;256.00;2252.80;;;;;;5095889;28;20032;-76
2021/10/24 07:30:31;;;;;;;25.60;15.60;;;256.10;2252.80;;;;;;5096220;28;20581;-77
2021/10/24 07:32:58;;;;;;;22.95;15.43;;;256.20;2252.80;;;;;;5096067;28;20036;-76
2021/10/24 07:35:24;;;;;;;25.20;16.98;;;256.20;2252.80;;;;;;5095807;28;20052;-76
2021/10/24 07:37:50;;;;;;;19.15;11.13;;;256.30;2252.80;;;;;;5095786;28;20035;-77
2021/10/24 07:40:18;;;;;;;18.55;11.30;;;256.30;2252.80;;;;;;5096015;28;20056;-77
2021/10/24 07:42:44;;;;;;;20.33;13.32;;;256.40;2252.80;;;;;;5095746;28;20375;-77
2021/10/24 07:45:11;;;;;;;14.80;8.18;;;256.50;2252.80;;;;;;5095820;28;20467;-78
2021/10/24 07:47:38;;;;;;;14.07;8.63;;;256.50;2252.80;;;;;;5095809;28;20081;-77
2021/10/24 07:50:06;;;;;;;55.65;39.40;;;256.50;2252.80;;;;;;5095582;28;20529;-77
2021/10/24 07:52:33;;;;;;;18.95;13.35;;;256.50;2252.80;;;;;;5096734;28;20020;-77
2021/10/24 07:54:59;;;;;;;14.63;10.10;;;256.60;2252.80;;;;;;5095593;28;20039;-77
2021/10/24 07:57:24;;;;;;;12.60;7.65;;;256.80;2252.80;;;;;;5095965;28;20383;-77
2021/10/24 07:59:50;;;;;;;11.80;7.88;;;256.90;2252.80;;;;;;5095795;28;20032;-77
2021/10/24 08:02:20;;;;;;;16.85;9.52;;;281.60;2278.40;;;;;;5096467;28;20024;-77
2021/10/24 08:04:47;;;;;;;11.38;6.45;;;281.60;2278.40;;;;;;5095804;28;20024;-77
2021/10/24 08:07:13;;;;;;;10.55;5.30;;;281.70;2278.40;;;;;;5095750;28;20028;-76
2021/10/24 08:09:40;;;;;;;10.40;6.43;;;281.70;2278.40;;;;;;5095245;28;20486;-76
2021/10/24 08:12:06;;;;;;;11.65;5.32;;;281.70;2278.40;;;;;;5095438;28;20031;-78
2021/10/24 08:14:32;;;;;;;12.77;5.65;;;281.90;2278.40;;;;;;5095547;28;20047;-77
2021/10/24 08:16:59;;;;;;;8.52;5.07;;;281.80;2278.40;;;;;;5096655;28;20043;-77
2021/10/24 08:19:26;;;;;;;12.40;7.75;;;281.80;2278.40;;;;;;5096948;28;20089;-77
2021/10/24 08:21:52;;;;;;;9.20;5.35;;;281.90;2278.40;;;;;;5094994;28;20483;-77
2021/10/24 08:24:19;;;;;;;12.90;4.22;;;282.00;2278.40;;;;;;5094316;28;20463;-77
2021/10/24 08:26:45;;;;;;;11.75;3.97;;;282.00;2278.40;;;;;;5094947;28;20471;-77
2021/10/24 08:29:11;;;;;;;19.85;13.05;;;281.70;2278.40;;;;;;5094886;28;20127;-77
2021/10/24 08:31:38;;;;;;;9.75;4.40;;;282.00;2278.40;;;;;;5094582;28;20028;-77
2021/10/24 08:34:04;;;;;;;7.93;4.30;;;282.10;2278.40;;;;;;5094743;28;20032;-77
2021/10/24 08:36:30;;;;;;;9.35;4.78;;;282.10;2278.40;;;;;;5094873;28;20024;-77
2021/10/24 08:39:01;;;;;;;9.25;6.35;;;282.10;2278.40;;;;;;5096057;28;20020;-77
2021/10/24 08:41:28;;;;;;;11.63;6.00;;;282.10;2278.40;;;;;;5094871;28;20107;-78
2021/10/24 08:44:02;;;;;;;11.30;5.30;;;282.20;2278.40;;;;;;5094135;28;20469;-77
2021/10/24 08:46:28;;;;;;;9.13;4.15;;;282.20;2278.40;;;;;;5094609;28;20365;-77
2021/10/24 08:48:56;;;;;;;7.50;3.58;;;282.30;2278.40;;;;;;5095595;28;20028;-77
2021/10/24 08:51:25;;;;;;;13.57;7.35;;;282.30;2278.40;;;;;;5094272;28;20078;-77
2021/10/24 08:53:51;;;;;;;20.55;9.23;;;282.30;2278.40;;;;;;5094435;28;20028;-77
2021/10/24 08:56:23;;;;;;;19.40;10.73;;;282.30;2278.40;;;;;;5094407;28;20028;-78
2021/10/24 08:58:50;;;;;;;19.30;7.00;;;282.40;2278.40;;;;;;5094037;28;20039;-78
2021/10/24 09:01:17;;;;;;;12.95;3.92;;;307.50;2304.00;;;;;;5094440;28;20467;-77
2021/10/24 09:04:09;;;;;;;9.60;5.05;;;307.20;2304.00;;;;;;5095810;28;20028;-77
2021/10/24 09:06:55;;;;;;;12.88;5.43;;;307.20;2304.00;;;;;;5094163;28;20059;-78
2021/10/24 09:09:33;;;;;;;18.13;8.27;;;307.30;2304.00;;;;;;5094517;28;20035;-77
2021/10/24 09:12:03;;;;;;;15.15;9.13;;;307.30;2304.00;;;;;;5094052;28;20020;-78
2021/10/24 09:14:47;;;;;;;13.27;8.40;;;307.50;2304.00;;;;;;5093963;28;20468;-78
2021/10/24 09:17:28;;;;;;;15.52;7.10;;;307.50;2304.00;;;;;;5094750;28;20028;-78
2021/10/24 09:19:59;;;;;;;18.88;9.35;;;307.60;2304.00;;;;;;5095672;28;20547;-77
2021/10/24 09:22:37;;;;;;;18.65;7.82;;;307.60;2304.00;;;;;;5094282;28;20020;-78
2021/10/24 09:25:07;;;;;;;19.45;8.73;;;307.80;2304.00;;;;;;5093932;28;20024;-76
2021/10/24 09:27:46;;;;;;;16.33;8.23;;;307.90;2304.00;;;;;;5093495;28;20521;-75
2021/10/24 09:30:28;;;;;;;15.38;8.95;;;308.00;2304.00;;;;;;5093858;28;20128;-74
2021/10/24 09:32:59;;;;;;;22.42;10.70;;;308.10;2304.00;;;;;;5093608;28;20031;-77
2021/10/24 09:35:31;;;;;;;14.63;8.43;;;332.80;2329.60;;;;;;5095021;28;20051;-77
2021/10/24 09:37:58;;;;;;;18.27;8.93;;;332.80;2304.00;;;;;;5093884;28;20054;-76
2021/10/24 09:40:31;;;;;;;18.85;8.90;;;332.80;2329.60;;;;;;5093407;28;20032;-76
2021/10/24 09:43:17;;;;;;;;;;;308.10;2227.20;;;;;;5094049;28;20024;-75
2021/10/24 09:45:45;;;;;;;23.77;12.02;;;308.10;2227.20;;;;;;5092682;28;19949;-74
2021/10/24 09:48:17;;;;;;;16.02;8.93;;;308.00;2227.20;;;;;;5093208;28;20028;-74
2021/10/24 09:50:51;;;;;;;13.33;9.30;;;307.90;2304.00;;;;;;5093349;28;20024;-75
2021/10/24 09:53:29;;;;;;;19.20;9.55;;;308.00;2201.60;;;;;;5093519;28;20102;-76
2021/10/24 09:55:59;;;;;;;15.00;8.38;;;308.00;2176.00;;;;;;5093081;28;20082;-74
2021/10/24 09:58:28;;;;;;;10.57;5.32;;;307.90;2201.60;;;;;;5094335;28;20017;-76
2021/10/24 10:00:54;;;;;;;16.45;9.20;;;307.80;1996.80;;;;;;5092825;28;20089;-75
2021/10/24 10:03:21;;;;;;;24.17;15.02;;;308.00;2048.00;;;;;;5094025;28;20077;-74
2021/10/24 10:05:47;;;;;;;16.35;9.48;;;332.80;2073.60;;;;;;5093159;28;20035;-75
2021/10/24 10:08:14;;;;;;;17.83;10.73;;;332.80;2073.60;;;;;;5092921;28;20059;-76
2021/10/24 10:10:43;;;;;;;16.05;6.70;;;332.90;2150.40;;;;;;5094250;28;20063;-76
2021/10/24 10:13:14;;;;;;;15.00;8.23;;;332.90;2073.60;;;;;;5094199;28;20024;-76
2021/10/24 10:15:44;;;;;;;14.43;7.55;;;332.90;2022.40;;;;;;5092605;28;20098;-76
2021/10/24 10:18:11;;;;;;;11.00;6.85;;;333.00;2099.20;;;;;;5094153;28;20031;-77
2021/10/24 10:20:50;;;;;;;16.58;11.48;;;332.90;2099.20;;;;;;5092803;28;20524;-77
2021/10/24 10:23:23;;;;;;;13.40;6.20;;;333.00;2124.80;;;;;;5092615;28;20073;-77
2021/10/24 10:25:50;;;;;;;15.52;9.10;;;333.10;2150.40;;;;;;5094739;28;20043;-76
2021/10/24 10:28:47;;;;;;;16.88;9.50;;;333.20;2150.40;;;;;;5096634;28;20028;-77
2021/10/24 10:31:14;;;;;;;9.30;6.43;;;333.30;2150.40;;;;;;5093891;28;20357;-75
2021/10/24 10:33:41;;;;;;;16.33;11.93;;;333.30;2073.60;;;;;;5092752;28;20023;-76
2021/10/24 10:36:08;;;;;;;15.75;8.95;;;333.40;2073.60;;;;;;5091969;28;20104;-75
2021/10/24 10:38:39;;;;;;;18.98;11.18;;;333.40;2099.20;;;;;;5092719;28;20460;-76
2021/10/24 10:41:11;;;;;;;10.23;6.47;;;333.50;2124.80;;;;;;5092666;28;20107;-76
2021/10/24 10:43:38;;;;;;;12.70;7.57;;;333.60;2048.00;;;;;;5093316;28;20031;-76
2021/10/24 10:46:06;;;;;;;12.65;8.10;;;333.50;2099.20;;;;;;5092101;28;20032;-76
2021/10/24 10:48:43;;;;;;;11.20;7.20;;;333.50;2073.60;;;;;;5092620;28;20039;-75
2021/10/24 10:51:29;;;;;;;14.48;7.55;;;333.70;2099.20;;;;;;5092311;28;20035;-77
2021/10/24 10:54:05;;;;;;;12.25;7.43;;;358.40;2048.00;;;;;;5092661;28;20024;-78
2021/10/24 10:56:41;;;;;;;11.98;7.60;;;358.60;2022.40;;;;;;5092541;28;20028;-76
2021/10/24 10:59:09;;;;;;;17.10;9.40;;;358.50;2073.60;;;;;;5092475;28;20169;-76
2021/10/24 11:01:39;;;;;;;17.98;9.35;;;358.70;2048.00;;;;;;5092373;28;20020;-76
2021/10/24 11:04:07;;;;;;;14.38;7.72;;;358.60;2099.20;;;;;;5092031;28;20021;-76
2021/10/24 11:06:36;;;;;;;15.13;8.55;;;358.80;2022.40;;;;;;5092756;28;20064;-78
2021/10/24 11:09:32;;;;;;;17.10;8.25;;;359.00;2073.60;;;;;;5093131;28;20055;-77
2021/10/24 11:11:58;;;;;;;10.55;6.40;;;359.10;1996.80;;;;;;5091780;28;20456;-75
2021/10/24 11:14:33;;;;;;;12.43;7.13;;;359.10;1971.20;;;;;;5092147;28;20024;-77
2021/10/24 11:17:00;;;;;;;15.43;6.35;;;359.30;2022.40;;;;;;5093583;28;20036;-76
2021/10/24 11:19:29;;;;;;;25.42;17.95;;;384.30;1971.20;;;;;;5091998;28;20028;-78
2021/10/24 11:22:04;;;;;;;14.18;8.98;;;384.70;1996.80;;;;;;5092023;28;20024;-77
2021/10/24 11:24:33;;;;;;;23.92;17.67;;;384.90;1945.60;;;;;;5092107;28;20116;-76
2021/10/24 11:27:00;;;;;;;20.45;14.63;;;409.70;1945.60;;;;;;5091984;28;20122;-78
2021/10/24 11:29:37;;;;;;;14.30;8.88;;;410.00;1971.20;;;;;;5092278;28;20024;-75
2021/10/24 11:32:40;;;;;;;13.82;9.30;;;410.20;1894.40;;;;;;5092131;28;20028;-78
2021/10/24 11:35:09;;;;;;;31.13;22.73;;;410.30;1894.40;;;;;;5053760;28;20053;-77
2021/10/24 11:37:48;;;;;;;18.42;14.55;;;435.20;1868.80;;;;;;5084594;28;20035;-77
2021/10/24 11:40:30;;;;;;;17.23;11.55;;;435.50;1843.20;;;;;;5091952;28;20020;-76
2021/10/24 11:43:02;;;;;;;17.05;10.40;;;435.60;1817.60;;;;;;5092197;28;20429;-77
2021/10/24 11:45:31;;;;;;;21.23;12.17;;;435.60;1766.40;;;;;;5091878;28;20054;-79
2021/10/24 11:48:06;;;;;;;19.55;11.40;;;435.60;1792.00;;;;;;5091750;28;20353;-76
2021/10/24 11:50:38;;;;;;;15.75;9.25;;;435.80;1792.00;;;;;;5093126;28;20032;-76
2021/10/24 11:53:06;;;;;;;11.30;7.35;;;435.80;1740.80;;;;;;5093026;28;20105;-75
2021/10/24 11:55:35;;;;;;;17.13;10.88;;;435.90;1766.40;;;;;;5092241;28;20024;-76
2021/10/24 11:58:35;;;;;;;12.40;7.90;;;436.10;1689.60;;;;;;5093336;28;20437;-75
2021/10/24 12:01:05;;;;;;;16.15;11.90;;;460.90;1689.60;;;;;;5096108;28;20459;-77
2021/10/24 12:03:34;;;;;;;13.05;7.72;;;461.10;1740.80;;;;;;5097015;28;20028;-77
2021/10/24 12:06:00;;;;;;;16.45;9.93;;;461.20;1689.60;;;;;;5096849;28;20375;-74
2021/10/24 12:08:45;;;;;;;17.30;11.50;;;461.40;1689.60;;;;;;5096567;28;20570;-76